sensor_id;sensor_type;location;lat;lon;timestamp;P1;durP1;ratioP1;P2;durP2;ratioP2
20441;SDS011;10380;52.102;20.614;2022-09-09T00:04:36;9.03;;;5.97;;
20441;SDS011;10380;52.102;20.614;2022-09-09T00:09:47;9.03;;;5.47;;
20441;SDS011;10380;52.102;20.614;2022-09-09T00:15:15;9.03;;;5.83;;
20441;SDS011;10380;52.102;20.614;2022-09-09T00:20:38;11.53;;;5.53;;
20441;SDS011;10380;52.102;20.614;2022-09-09T00:23:30;9.53;;;6.20;;
20441;SDS011;10380;52.102;20.614;2022-09-09T00:28:33;11.40;;;6.33;;
20441;SDS011;10380;52.102;20.614;2022-09-09T00:31:11;9.90;;;6.43;;
20441;SDS011;10380;52.102;20.614;2022-09-09T00:36:53;11.10;;;6.07;;
20441;SDS011;10380;52.102;20.614;2022-09-09T00:39:35;10.97;;;6.73;;
20441;SDS011;10380;52.102;20.614;2022-09-09T00:42:18;8.57;;;5.83;;
20441;SDS011;10380;52.102;20.614;2022-09-09T00:47:46;9.40;;;6.47;;
20441;SDS011;10380;52.102;20.614;2022-09-09T00:53:26;10.43;;;6.37;;
20441;SDS011;10380;52.102;20.614;2022-09-09T00:56:30;9.30;;;6.70;;
20441;SDS011;10380;52.102;20.614;2022-09-09T01:02:18;9.43;;;7.07;;
20441;SDS011;10380;52.102;20.614;2022-09-09T01:05:05;9.30;;;6.53;;
20441;SDS011;10380;52.102;20.614;2022-09-09T01:07:47;11.40;;;6.23;;
20441;SDS011;10380;52.102;20.614;2022-09-09T01:15:46;12.43;;;6.50;;
20441;SDS011;10380;52.102;20.614;2022-09-09T01:18:21;12.83;;;7.10;;
20441;SDS011;10380;52.102;20.614;2022-09-09T01:23:35;13.40;;;7.33;;
20441;SDS011;10380;52.102;20.614;2022-09-09T01:29:27;13.17;;;6.93;;
20441;SDS011;10380;52.102;20.614;2022-09-09T01:34:49;12.67;;;7.20;;
20441;SDS011;10380;52.102;20.614;2022-09-09T01:37:25;9.57;;;6.93;;
20441;SDS011;10380;52.102;20.614;2022-09-09T01:39:52;15.27;;;7.40;;
20441;SDS011;10380;52.102;20.614;2022-09-09T01:42:27;9.43;;;6.97;;
20441;SDS011;10380;52.102;20.614;2022-09-09T01:44:54;13.07;;;8.00;;
20441;SDS011;10380;52.102;20.614;2022-09-09T01:47:23;11.67;;;7.10;;
20441;SDS011;10380;52.102;20.614;2022-09-09T01:49:52;13.70;;;7.30;;
20441;SDS011;10380;52.102;20.614;2022-09-09T01:52:19;12.13;;;7.50;;
20441;SDS011;10380;52.102;20.614;2022-09-09T01:54:46;14.63;;;8.67;;
20441;SDS011;10380;52.102;20.614;2022-09-09T01:57:15;12.87;;;8.07;;
20441;SDS011;10380;52.102;20.614;2022-09-09T02:00:08;12.30;;;8.13;;
20441;SDS011;10380;52.102;20.614;2022-09-09T02:02:48;14.83;;;7.77;;
20441;SDS011;10380;52.102;20.614;2022-09-09T02:05:35;11.70;;;7.60;;
20441;SDS011;10380;52.102;20.614;2022-09-09T02:08:08;12.50;;;7.63;;
20441;SDS011;10380;52.102;20.614;2022-09-09T02:13:14;14.57;;;8.57;;
20441;SDS011;10380;52.102;20.614;2022-09-09T02:15:52;12.77;;;7.70;;
20441;SDS011;10380;52.102;20.614;2022-09-09T02:18:51;13.43;;;7.93;;
20441;SDS011;10380;52.102;20.614;2022-09-09T02:21:24;12.40;;;8.60;;
20441;SDS011;10380;52.102;20.614;2022-09-09T02:23:57;13.63;;;7.60;;
20441;SDS011;10380;52.102;20.614;2022-09-09T02:28:59;13.10;;;9.00;;
20441;SDS011;10380;52.102;20.614;2022-09-09T02:31:32;16.17;;;8.63;;
20441;SDS011;10380;52.102;20.614;2022-09-09T02:34:03;12.23;;;8.20;;
20441;SDS011;10380;52.102;20.614;2022-09-09T02:36:35;10.63;;;7.93;;
20441;SDS011;10380;52.102;20.614;2022-09-09T02:39:03;16.57;;;9.17;;
20441;SDS011;10380;52.102;20.614;2022-09-09T02:41:35;14.43;;;8.93;;
20441;SDS011;10380;52.102;20.614;2022-09-09T02:44:11;13.70;;;8.67;;
20441;SDS011;10380;52.102;20.614;2022-09-09T02:50:12;13.90;;;9.27;;
20441;SDS011;10380;52.102;20.614;2022-09-09T02:52:48;16.90;;;9.43;;
20441;SDS011;10380;52.102;20.614;2022-09-09T02:55:32;12.63;;;8.47;;
20441;SDS011;10380;52.102;20.614;2022-09-09T02:58:13;14.63;;;9.43;;
20441;SDS011;10380;52.102;20.614;2022-09-09T03:00:54;13.77;;;9.30;;
20441;SDS011;10380;52.102;20.614;2022-09-09T03:03:23;14.63;;;9.37;;
20441;SDS011;10380;52.102;20.614;2022-09-09T03:05:51;11.10;;;8.70;;
20441;SDS011;10380;52.102;20.614;2022-09-09T03:08:20;16.07;;;8.90;;
20441;SDS011;10380;52.102;20.614;2022-09-09T03:10:48;13.67;;;8.97;;
20441;SDS011;10380;52.102;20.614;2022-09-09T03:13:17;14.13;;;9.67;;
20441;SDS011;10380;52.102;20.614;2022-09-09T03:15:45;13.93;;;9.77;;
20441;SDS011;10380;52.102;20.614;2022-09-09T03:18:14;14.93;;;9.83;;
20441;SDS011;10380;52.102;20.614;2022-09-09T03:20:43;13.13;;;8.97;;
20441;SDS011;10380;52.102;20.614;2022-09-09T03:23:13;13.00;;;9.63;;
20441;SDS011;10380;52.102;20.614;2022-09-09T03:25:50;15.40;;;10.00;;
20441;SDS011;10380;52.102;20.614;2022-09-09T03:28:18;13.73;;;9.43;;
20441;SDS011;10380;52.102;20.614;2022-09-09T03:30:46;15.00;;;9.20;;
20441;SDS011;10380;52.102;20.614;2022-09-09T03:33:13;12.43;;;9.47;;
20441;SDS011;10380;52.102;20.614;2022-09-09T03:35:44;14.37;;;9.90;;
20441;SDS011;10380;52.102;20.614;2022-09-09T03:38:21;14.50;;;9.40;;
20441;SDS011;10380;52.102;20.614;2022-09-09T03:40:51;15.20;;;9.37;;
20441;SDS011;10380;52.102;20.614;2022-09-09T03:43:25;13.60;;;8.50;;
20441;SDS011;10380;52.102;20.614;2022-09-09T03:45:53;16.37;;;10.07;;
20441;SDS011;10380;52.102;20.614;2022-09-09T03:48:24;13.40;;;9.30;;
20441;SDS011;10380;52.102;20.614;2022-09-09T03:51:03;13.53;;;9.47;;
20441;SDS011;10380;52.102;20.614;2022-09-09T03:56:01;13.07;;;9.00;;
20441;SDS011;10380;52.102;20.614;2022-09-09T03:58:32;9.43;;;7.90;;
20441;SDS011;10380;52.102;20.614;2022-09-09T04:03:37;15.20;;;10.23;;
20441;SDS011;10380;52.102;20.614;2022-09-09T04:06:04;15.17;;;9.43;;
20441;SDS011;10380;52.102;20.614;2022-09-09T04:08:34;12.57;;;9.20;;
20441;SDS011;10380;52.102;20.614;2022-09-09T04:11:03;11.40;;;8.87;;
20441;SDS011;10380;52.102;20.614;2022-09-09T04:13:33;12.50;;;8.33;;
20441;SDS011;10380;52.102;20.614;2022-09-09T04:16:02;13.17;;;9.20;;
20441;SDS011;10380;52.102;20.614;2022-09-09T04:18:33;11.83;;;7.97;;
20441;SDS011;10380;52.102;20.614;2022-09-09T04:21:08;12.20;;;9.70;;
20441;SDS011;10380;52.102;20.614;2022-09-09T04:23:43;13.70;;;10.13;;
20441;SDS011;10380;52.102;20.614;2022-09-09T04:26:13;12.93;;;8.07;;
20441;SDS011;10380;52.102;20.614;2022-09-09T04:28:47;11.70;;;8.30;;
20441;SDS011;10380;52.102;20.614;2022-09-09T04:31:21;10.83;;;8.53;;
20441;SDS011;10380;52.102;20.614;2022-09-09T04:33:51;12.70;;;7.93;;
20441;SDS011;10380;52.102;20.614;2022-09-09T04:36:18;10.77;;;8.87;;
20441;SDS011;10380;52.102;20.614;2022-09-09T04:41:16;10.73;;;8.83;;
20441;SDS011;10380;52.102;20.614;2022-09-09T04:43:44;10.90;;;8.27;;
20441;SDS011;10380;52.102;20.614;2022-09-09T04:46:11;10.80;;;8.40;;
20441;SDS011;10380;52.102;20.614;2022-09-09T04:48:38;11.93;;;8.70;;
20441;SDS011;10380;52.102;20.614;2022-09-09T04:51:08;14.53;;;8.90;;
20441;SDS011;10380;52.102;20.614;2022-09-09T04:53:37;12.13;;;7.97;;
20441;SDS011;10380;52.102;20.614;2022-09-09T04:56:10;11.63;;;8.37;;
20441;SDS011;10380;52.102;20.614;2022-09-09T04:58:40;15.93;;;13.30;;
20441;SDS011;10380;52.102;20.614;2022-09-09T05:01:13;13.40;;;9.50;;
20441;SDS011;10380;52.102;20.614;2022-09-09T05:03:46;15.63;;;9.03;;
20441;SDS011;10380;52.102;20.614;2022-09-09T05:06:15;10.77;;;8.67;;
20441;SDS011;10380;52.102;20.614;2022-09-09T05:08:47;15.17;;;9.73;;
20441;SDS011;10380;52.102;20.614;2022-09-09T05:11:19;11.33;;;8.67;;
20441;SDS011;10380;52.102;20.614;2022-09-09T05:13:51;11.90;;;9.03;;
20441;SDS011;10380;52.102;20.614;2022-09-09T05:16:25;10.93;;;9.17;;
20441;SDS011;10380;52.102;20.614;2022-09-09T05:18:53;12.10;;;9.23;;
20441;SDS011;10380;52.102;20.614;2022-09-09T05:21:21;12.73;;;8.60;;
20441;SDS011;10380;52.102;20.614;2022-09-09T05:23:50;10.87;;;8.53;;
20441;SDS011;10380;52.102;20.614;2022-09-09T05:26:18;15.10;;;9.73;;
20441;SDS011;10380;52.102;20.614;2022-09-09T05:28:47;14.37;;;9.13;;
20441;SDS011;10380;52.102;20.614;2022-09-09T05:31:15;13.60;;;8.37;;
20441;SDS011;10380;52.102;20.614;2022-09-09T05:33:45;11.93;;;9.07;;
20441;SDS011;10380;52.102;20.614;2022-09-09T05:36:14;11.90;;;8.83;;
20441;SDS011;10380;52.102;20.614;2022-09-09T05:38:47;10.80;;;8.43;;
20441;SDS011;10380;52.102;20.614;2022-09-09T05:41:16;12.30;;;8.87;;
20441;SDS011;10380;52.102;20.614;2022-09-09T05:43:44;10.30;;;8.87;;
20441;SDS011;10380;52.102;20.614;2022-09-09T05:46:14;11.70;;;8.20;;
20441;SDS011;10380;52.102;20.614;2022-09-09T05:48:46;13.97;;;9.30;;
20441;SDS011;10380;52.102;20.614;2022-09-09T05:51:15;11.27;;;9.37;;
20441;SDS011;10380;52.102;20.614;2022-09-09T05:53:46;13.73;;;9.33;;
20441;SDS011;10380;52.102;20.614;2022-09-09T05:56:14;12.87;;;8.60;;
20441;SDS011;10380;52.102;20.614;2022-09-09T05:58:45;11.70;;;8.90;;
20441;SDS011;10380;52.102;20.614;2022-09-09T06:01:18;11.97;;;8.60;;
20441;SDS011;10380;52.102;20.614;2022-09-09T06:03:51;11.23;;;8.57;;
20441;SDS011;10380;52.102;20.614;2022-09-09T06:06:20;12.50;;;9.13;;
20441;SDS011;10380;52.102;20.614;2022-09-09T06:08:50;12.93;;;9.53;;
20441;SDS011;10380;52.102;20.614;2022-09-09T06:11:22;12.90;;;9.50;;
20441;SDS011;10380;52.102;20.614;2022-09-09T06:13:51;11.27;;;8.83;;
20441;SDS011;10380;52.102;20.614;2022-09-09T06:16:21;12.57;;;8.33;;
20441;SDS011;10380;52.102;20.614;2022-09-09T06:18:50;11.53;;;8.93;;
20441;SDS011;10380;52.102;20.614;2022-09-09T06:21:19;10.63;;;8.50;;
20441;SDS011;10380;52.102;20.614;2022-09-09T06:23:46;13.63;;;8.53;;
20441;SDS011;10380;52.102;20.614;2022-09-09T06:26:15;10.90;;;8.60;;
20441;SDS011;10380;52.102;20.614;2022-09-09T06:28:45;12.23;;;8.70;;
20441;SDS011;10380;52.102;20.614;2022-09-09T06:31:15;10.17;;;8.40;;
20441;SDS011;10380;52.102;20.614;2022-09-09T06:33:44;11.63;;;9.07;;
20441;SDS011;10380;52.102;20.614;2022-09-09T06:36:15;13.07;;;9.50;;
20441;SDS011;10380;52.102;20.614;2022-09-09T06:38:44;11.57;;;8.70;;
20441;SDS011;10380;52.102;20.614;2022-09-09T06:41:12;11.47;;;8.77;;
20441;SDS011;10380;52.102;20.614;2022-09-09T06:43:41;12.97;;;9.03;;
20441;SDS011;10380;52.102;20.614;2022-09-09T06:46:12;14.03;;;9.63;;
20441;SDS011;10380;52.102;20.614;2022-09-09T06:48:45;13.20;;;8.40;;
20441;SDS011;10380;52.102;20.614;2022-09-09T06:51:14;14.30;;;9.90;;
20441;SDS011;10380;52.102;20.614;2022-09-09T06:53:50;13.77;;;10.38;;
20441;SDS011;10380;52.102;20.614;2022-09-09T06:56:27;14.82;;;9.45;;
20441;SDS011;10380;52.102;20.614;2022-09-09T06:59:00;14.60;;;10.27;;
20441;SDS011;10380;52.102;20.614;2022-09-09T07:01:32;17.20;;;10.57;;
20441;SDS011;10380;52.102;20.614;2022-09-09T07:04:01;16.17;;;10.10;;
20441;SDS011;10380;52.102;20.614;2022-09-09T07:06:34;14.23;;;9.60;;
20441;SDS011;10380;52.102;20.614;2022-09-09T07:09:07;12.40;;;9.52;;
20441;SDS011;10380;52.102;20.614;2022-09-09T07:11:40;19.70;;;10.87;;
20441;SDS011;10380;52.102;20.614;2022-09-09T07:14:12;16.37;;;11.40;;
20441;SDS011;10380;52.102;20.614;2022-09-09T07:16:43;20.50;;;10.73;;
20441;SDS011;10380;52.102;20.614;2022-09-09T07:19:12;16.02;;;10.43;;
20441;SDS011;10380;52.102;20.614;2022-09-09T07:21:40;17.10;;;10.77;;
20441;SDS011;10380;52.102;20.614;2022-09-09T07:24:08;17.63;;;10.50;;
20441;SDS011;10380;52.102;20.614;2022-09-09T07:26:38;17.83;;;10.85;;
20441;SDS011;10380;52.102;20.614;2022-09-09T07:29:06;18.60;;;12.32;;
20441;SDS011;10380;52.102;20.614;2022-09-09T07:31:34;19.80;;;10.15;;
20441;SDS011;10380;52.102;20.614;2022-09-09T07:34:03;19.25;;;10.40;;
20441;SDS011;10380;52.102;20.614;2022-09-09T07:36:32;19.52;;;11.55;;
20441;SDS011;10380;52.102;20.614;2022-09-09T07:39:02;24.52;;;12.10;;
20441;SDS011;10380;52.102;20.614;2022-09-09T07:41:32;22.40;;;13.40;;
20441;SDS011;10380;52.102;20.614;2022-09-09T07:44:07;22.02;;;12.10;;
20441;SDS011;10380;52.102;20.614;2022-09-09T07:46:37;20.23;;;12.23;;
20441;SDS011;10380;52.102;20.614;2022-09-09T07:49:08;22.95;;;13.07;;
20441;SDS011;10380;52.102;20.614;2022-09-09T07:51:37;19.98;;;11.57;;
20441;SDS011;10380;52.102;20.614;2022-09-09T07:54:07;23.45;;;12.88;;
20441;SDS011;10380;52.102;20.614;2022-09-09T07:56:37;20.52;;;11.63;;
20441;SDS011;10380;52.102;20.614;2022-09-09T07:59:05;24.83;;;12.75;;
20441;SDS011;10380;52.102;20.614;2022-09-09T08:01:34;24.80;;;13.35;;
20441;SDS011;10380;52.102;20.614;2022-09-09T08:04:15;28.45;;;13.43;;
20441;SDS011;10380;52.102;20.614;2022-09-09T08:06:45;20.20;;;12.35;;
20441;SDS011;10380;52.102;20.614;2022-09-09T08:09:15;20.77;;;12.77;;
20441;SDS011;10380;52.102;20.614;2022-09-09T08:11:42;27.45;;;13.68;;
20441;SDS011;10380;52.102;20.614;2022-09-09T08:14:10;25.77;;;14.80;;
20441;SDS011;10380;52.102;20.614;2022-09-09T08:16:42;29.60;;;15.25;;
20441;SDS011;10380;52.102;20.614;2022-09-09T08:19:11;24.92;;;14.68;;
20441;SDS011;10380;52.102;20.614;2022-09-09T08:21:39;27.20;;;14.40;;
20441;SDS011;10380;52.102;20.614;2022-09-09T08:24:07;24.88;;;14.05;;
20441;SDS011;10380;52.102;20.614;2022-09-09T08:26:38;21.13;;;14.40;;
20441;SDS011;10380;52.102;20.614;2022-09-09T08:29:08;23.45;;;14.25;;
20441;SDS011;10380;52.102;20.614;2022-09-09T08:31:37;31.27;;;16.50;;
20441;SDS011;10380;52.102;20.614;2022-09-09T08:34:24;26.42;;;14.20;;
20441;SDS011;10380;52.102;20.614;2022-09-09T08:36:53;22.95;;;14.65;;
20441;SDS011;10380;52.102;20.614;2022-09-09T08:39:21;26.52;;;14.05;;
20441;SDS011;10380;52.102;20.614;2022-09-09T08:41:57;27.48;;;14.70;;
20441;SDS011;10380;52.102;20.614;2022-09-09T08:50:40;23.85;;;13.57;;
20441;SDS011;10380;52.102;20.614;2022-09-09T08:55:53;29.75;;;16.15;;
20441;SDS011;10380;52.102;20.614;2022-09-09T08:58:28;29.65;;;16.90;;
20441;SDS011;10380;52.102;20.614;2022-09-09T09:03:34;29.15;;;17.40;;
20441;SDS011;10380;52.102;20.614;2022-09-09T09:11:59;32.03;;;17.60;;
20441;SDS011;10380;52.102;20.614;2022-09-09T09:14:29;28.35;;;18.05;;
20441;SDS011;10380;52.102;20.614;2022-09-09T09:17:07;28.98;;;17.27;;
20441;SDS011;10380;52.102;20.614;2022-09-09T09:19:39;29.58;;;17.30;;
20441;SDS011;10380;52.102;20.614;2022-09-09T09:22:18;34.03;;;18.65;;
20441;SDS011;10380;52.102;20.614;2022-09-09T09:25:15;26.10;;;17.42;;
20441;SDS011;10380;52.102;20.614;2022-09-09T09:30:49;31.38;;;18.15;;
20441;SDS011;10380;52.102;20.614;2022-09-09T09:33:22;33.03;;;18.35;;
20441;SDS011;10380;52.102;20.614;2022-09-09T09:35:50;29.45;;;17.73;;
20441;SDS011;10380;52.102;20.614;2022-09-09T09:38:24;38.08;;;20.42;;
20441;SDS011;10380;52.102;20.614;2022-09-09T09:41:13;36.92;;;20.85;;
20441;SDS011;10380;52.102;20.614;2022-09-09T09:43:40;30.90;;;18.30;;
20441;SDS011;10380;52.102;20.614;2022-09-09T09:46:18;33.10;;;18.52;;
20441;SDS011;10380;52.102;20.614;2022-09-09T09:48:57;33.35;;;20.42;;
20441;SDS011;10380;52.102;20.614;2022-09-09T09:51:24;30.05;;;18.70;;
20441;SDS011;10380;52.102;20.614;2022-09-09T09:53:53;30.08;;;18.45;;
20441;SDS011;10380;52.102;20.614;2022-09-09T09:56:27;33.38;;;18.98;;
20441;SDS011;10380;52.102;20.614;2022-09-09T09:58:59;31.25;;;19.60;;
20441;SDS011;10380;52.102;20.614;2022-09-09T10:01:34;31.75;;;18.90;;
20441;SDS011;10380;52.102;20.614;2022-09-09T10:06:44;30.15;;;18.10;;
20441;SDS011;10380;52.102;20.614;2022-09-09T10:09:30;27.40;;;16.35;;
20441;SDS011;10380;52.102;20.614;2022-09-09T10:14:33;29.20;;;17.77;;
20441;SDS011;10380;52.102;20.614;2022-09-09T10:20:04;27.25;;;16.70;;
20441;SDS011;10380;52.102;20.614;2022-09-09T10:22:39;32.00;;;18.83;;
20441;SDS011;10380;52.102;20.614;2022-09-09T10:30:46;35.13;;;18.70;;
20441;SDS011;10380;52.102;20.614;2022-09-09T10:33:36;31.08;;;17.02;;
20441;SDS011;10380;52.102;20.614;2022-09-09T10:36:20;30.08;;;18.15;;
20441;SDS011;10380;52.102;20.614;2022-09-09T10:38:53;32.92;;;20.33;;
20441;SDS011;10380;52.102;20.614;2022-09-09T10:44:18;33.20;;;18.35;;
20441;SDS011;10380;52.102;20.614;2022-09-09T10:55:26;33.92;;;19.85;;
20441;SDS011;10380;52.102;20.614;2022-09-09T10:58:03;34.17;;;20.00;;
20441;SDS011;10380;52.102;20.614;2022-09-09T11:00:40;36.90;;;19.50;;
20441;SDS011;10380;52.102;20.614;2022-09-09T11:03:17;37.10;;;20.65;;
20441;SDS011;10380;52.102;20.614;2022-09-09T11:05:53;35.40;;;19.63;;
20441;SDS011;10380;52.102;20.614;2022-09-09T11:08:26;32.10;;;19.38;;
20441;SDS011;10380;52.102;20.614;2022-09-09T11:13:47;33.78;;;19.83;;
20441;SDS011;10380;52.102;20.614;2022-09-09T11:19:03;37.97;;;20.60;;
20441;SDS011;10380;52.102;20.614;2022-09-09T11:21:44;39.33;;;20.63;;
20441;SDS011;10380;52.102;20.614;2022-09-09T11:24:19;39.63;;;21.55;;
20441;SDS011;10380;52.102;20.614;2022-09-09T11:27:07;36.72;;;20.42;;
20441;SDS011;10380;52.102;20.614;2022-09-09T11:35:55;38.45;;;22.73;;
20441;SDS011;10380;52.102;20.614;2022-09-09T11:38:57;41.15;;;21.58;;
20441;SDS011;10380;52.102;20.614;2022-09-09T11:41:34;44.00;;;23.60;;
20441;SDS011;10380;52.102;20.614;2022-09-09T11:44:18;41.60;;;22.13;;
20441;SDS011;10380;52.102;20.614;2022-09-09T11:46:52;35.92;;;23.08;;
20441;SDS011;10380;52.102;20.614;2022-09-09T11:49:29;43.38;;;23.35;;
20441;SDS011;10380;52.102;20.614;2022-09-09T11:52:12;37.67;;;22.33;;
20441;SDS011;10380;52.102;20.614;2022-09-09T11:54:53;36.33;;;21.95;;
20441;SDS011;10380;52.102;20.614;2022-09-09T11:57:26;37.10;;;22.80;;
20441;SDS011;10380;52.102;20.614;2022-09-09T11:59:58;36.80;;;22.38;;
20441;SDS011;10380;52.102;20.614;2022-09-09T12:02:27;32.22;;;21.73;;
20441;SDS011;10380;52.102;20.614;2022-09-09T12:05:02;37.22;;;21.10;;
20441;SDS011;10380;52.102;20.614;2022-09-09T12:07:40;32.95;;;22.38;;
20441;SDS011;10380;52.102;20.614;2022-09-09T12:10:52;41.92;;;22.35;;
20441;SDS011;10380;52.102;20.614;2022-09-09T12:13:08;36.47;;;22.48;;
20441;SDS011;10380;52.102;20.614;2022-09-09T12:15:47;42.17;;;23.52;;
20441;SDS011;10380;52.102;20.614;2022-09-09T12:18:38;36.42;;;23.00;;
20441;SDS011;10380;52.102;20.614;2022-09-09T12:21:26;36.42;;;22.35;;
20441;SDS011;10380;52.102;20.614;2022-09-09T12:24:09;35.90;;;22.88;;
20441;SDS011;10380;52.102;20.614;2022-09-09T12:26:52;38.35;;;22.27;;
20441;SDS011;10380;52.102;20.614;2022-09-09T12:32:28;32.42;;;21.02;;
20441;SDS011;10380;52.102;20.614;2022-09-09T12:35:00;38.47;;;23.77;;
20441;SDS011;10380;52.102;20.614;2022-09-09T12:40:22;35.45;;;21.55;;
20441;SDS011;10380;52.102;20.614;2022-09-09T12:43:02;37.08;;;21.50;;
20441;SDS011;10380;52.102;20.614;2022-09-09T12:45:48;33.67;;;21.30;;
20441;SDS011;10380;52.102;20.614;2022-09-09T12:48:25;32.58;;;20.58;;
20441;SDS011;10380;52.102;20.614;2022-09-09T12:50:58;32.47;;;20.75;;
20441;SDS011;10380;52.102;20.614;2022-09-09T12:53:26;35.25;;;21.65;;
20441;SDS011;10380;52.102;20.614;2022-09-09T12:55:59;29.58;;;19.65;;
20441;SDS011;10380;52.102;20.614;2022-09-09T12:58:31;34.22;;;18.92;;
20441;SDS011;10380;52.102;20.614;2022-09-09T13:00:59;33.72;;;20.85;;
20441;SDS011;10380;52.102;20.614;2022-09-09T13:03:31;30.98;;;20.35;;
20441;SDS011;10380;52.102;20.614;2022-09-09T13:06:13;32.15;;;19.50;;
20441;SDS011;10380;52.102;20.614;2022-09-09T13:08:55;33.50;;;20.15;;
20441;SDS011;10380;52.102;20.614;2022-09-09T13:11:42;29.92;;;19.15;;
20441;SDS011;10380;52.102;20.614;2022-09-09T13:14:30;28.00;;;19.35;;
20441;SDS011;10380;52.102;20.614;2022-09-09T13:17:01;26.98;;;18.05;;
20441;SDS011;10380;52.102;20.614;2022-09-09T13:22:16;24.58;;;16.30;;
20441;SDS011;10380;52.102;20.614;2022-09-09T13:25:01;23.92;;;16.33;;
20441;SDS011;10380;52.102;20.614;2022-09-09T13:27:35;23.60;;;17.08;;
20441;SDS011;10380;52.102;20.614;2022-09-09T13:30:20;22.35;;;15.55;;
20441;SDS011;10380;52.102;20.614;2022-09-09T13:35:28;21.30;;;15.80;;
20441;SDS011;10380;52.102;20.614;2022-09-09T13:37:56;23.42;;;15.98;;
20441;SDS011;10380;52.102;20.614;2022-09-09T13:40:26;19.50;;;14.88;;
20441;SDS011;10380;52.102;20.614;2022-09-09T13:42:55;24.80;;;16.10;;
20441;SDS011;10380;52.102;20.614;2022-09-09T13:45:25;23.02;;;16.05;;
20441;SDS011;10380;52.102;20.614;2022-09-09T13:47:53;22.88;;;16.55;;
20441;SDS011;10380;52.102;20.614;2022-09-09T13:50:25;23.13;;;16.42;;
20441;SDS011;10380;52.102;20.614;2022-09-09T13:55:28;22.35;;;16.70;;
20441;SDS011;10380;52.102;20.614;2022-09-09T13:58:03;22.67;;;16.73;;
20441;SDS011;10380;52.102;20.614;2022-09-09T14:00:33;20.75;;;15.88;;
20441;SDS011;10380;52.102;20.614;2022-09-09T14:03:01;25.13;;;18.38;;
20441;SDS011;10380;52.102;20.614;2022-09-09T14:05:30;25.50;;;17.38;;
20441;SDS011;10380;52.102;20.614;2022-09-09T14:08:00;22.52;;;16.63;;
20441;SDS011;10380;52.102;20.614;2022-09-09T14:10:32;21.63;;;16.58;;
20441;SDS011;10380;52.102;20.614;2022-09-09T14:13:03;26.25;;;16.95;;
20441;SDS011;10380;52.102;20.614;2022-09-09T14:15:30;21.10;;;16.40;;
20441;SDS011;10380;52.102;20.614;2022-09-09T14:17:57;21.23;;;15.70;;
20441;SDS011;10380;52.102;20.614;2022-09-09T14:20:25;22.77;;;17.08;;
20441;SDS011;10380;52.102;20.614;2022-09-09T14:22:52;24.40;;;15.77;;
20441;SDS011;10380;52.102;20.614;2022-09-09T14:25:19;19.70;;;14.95;;
20441;SDS011;10380;52.102;20.614;2022-09-09T14:27:47;22.02;;;16.13;;
20441;SDS011;10380;52.102;20.614;2022-09-09T14:30:15;23.83;;;16.77;;
20441;SDS011;10380;52.102;20.614;2022-09-09T14:32:42;22.80;;;16.15;;
20441;SDS011;10380;52.102;20.614;2022-09-09T14:35:09;21.63;;;16.02;;
20441;SDS011;10380;52.102;20.614;2022-09-09T14:37:37;19.00;;;14.90;;
20441;SDS011;10380;52.102;20.614;2022-09-09T14:40:07;22.92;;;15.15;;
20441;SDS011;10380;52.102;20.614;2022-09-09T14:42:34;22.70;;;16.77;;
20441;SDS011;10380;52.102;20.614;2022-09-09T14:45:02;19.10;;;14.43;;
20441;SDS011;10380;52.102;20.614;2022-09-09T14:47:31;19.88;;;15.35;;
20441;SDS011;10380;52.102;20.614;2022-09-09T14:49:58;20.65;;;17.25;;
20441;SDS011;10380;52.102;20.614;2022-09-09T14:52:27;20.60;;;17.35;;
20441;SDS011;10380;52.102;20.614;2022-09-09T14:57:26;25.20;;;17.42;;
20441;SDS011;10380;52.102;20.614;2022-09-09T14:59:53;22.90;;;16.27;;
20441;SDS011;10380;52.102;20.614;2022-09-09T15:02:20;19.20;;;14.93;;
20441;SDS011;10380;52.102;20.614;2022-09-09T15:04:47;21.25;;;15.52;;
20441;SDS011;10380;52.102;20.614;2022-09-09T15:07:17;19.40;;;14.77;;
20441;SDS011;10380;52.102;20.614;2022-09-09T15:09:46;18.15;;;14.60;;
20441;SDS011;10380;52.102;20.614;2022-09-09T15:12:15;19.58;;;14.68;;
20441;SDS011;10380;52.102;20.614;2022-09-09T15:14:45;22.70;;;16.70;;
20441;SDS011;10380;52.102;20.614;2022-09-09T15:17:12;22.48;;;16.40;;
20441;SDS011;10380;52.102;20.614;2022-09-09T15:19:42;21.63;;;16.48;;
20441;SDS011;10380;52.102;20.614;2022-09-09T15:22:09;24.30;;;17.63;;
20441;SDS011;10380;52.102;20.614;2022-09-09T15:24:39;24.45;;;18.55;;
20441;SDS011;10380;52.102;20.614;2022-09-09T15:27:06;23.00;;;17.48;;
20441;SDS011;10380;52.102;20.614;2022-09-09T15:29:34;25.77;;;18.50;;
20441;SDS011;10380;52.102;20.614;2022-09-09T15:32:01;23.17;;;17.13;;
20441;SDS011;10380;52.102;20.614;2022-09-09T15:34:28;25.60;;;19.13;;
20441;SDS011;10380;52.102;20.614;2022-09-09T15:36:55;27.58;;;18.52;;
20441;SDS011;10380;52.102;20.614;2022-09-09T15:39:22;20.90;;;15.43;;
20441;SDS011;10380;52.102;20.614;2022-09-09T15:41:49;24.30;;;15.95;;
20441;SDS011;10380;52.102;20.614;2022-09-09T15:44:18;24.30;;;17.30;;
20441;SDS011;10380;52.102;20.614;2022-09-09T15:46:49;22.17;;;15.75;;
20441;SDS011;10380;52.102;20.614;2022-09-09T15:49:17;22.63;;;16.38;;
20441;SDS011;10380;52.102;20.614;2022-09-09T15:51:47;21.40;;;16.92;;
20441;SDS011;10380;52.102;20.614;2022-09-09T15:54:19;24.90;;;17.65;;
20441;SDS011;10380;52.102;20.614;2022-09-09T15:56:53;26.95;;;19.45;;
20441;SDS011;10380;52.102;20.614;2022-09-09T15:59:23;27.67;;;18.30;;
20441;SDS011;10380;52.102;20.614;2022-09-09T16:01:52;26.55;;;17.73;;
20441;SDS011;10380;52.102;20.614;2022-09-09T16:04:21;26.95;;;18.77;;
20441;SDS011;10380;52.102;20.614;2022-09-09T16:06:53;24.58;;;18.77;;
20441;SDS011;10380;52.102;20.614;2022-09-09T16:09:22;28.13;;;19.45;;
20441;SDS011;10380;52.102;20.614;2022-09-09T16:11:49;29.63;;;19.75;;
20441;SDS011;10380;52.102;20.614;2022-09-09T16:14:16;28.70;;;19.42;;
20441;SDS011;10380;52.102;20.614;2022-09-09T16:16:43;25.92;;;18.35;;
20441;SDS011;10380;52.102;20.614;2022-09-09T16:19:11;27.35;;;19.05;;
20441;SDS011;10380;52.102;20.614;2022-09-09T16:21:43;30.08;;;20.58;;
20441;SDS011;10380;52.102;20.614;2022-09-09T16:24:13;34.00;;;20.98;;
20441;SDS011;10380;52.102;20.614;2022-09-09T16:26:43;30.23;;;20.38;;
20441;SDS011;10380;52.102;20.614;2022-09-09T16:29:12;29.02;;;20.38;;
20441;SDS011;10380;52.102;20.614;2022-09-09T16:31:42;31.63;;;21.98;;
20441;SDS011;10380;52.102;20.614;2022-09-09T16:34:09;31.90;;;20.77;;
20441;SDS011;10380;52.102;20.614;2022-09-09T16:36:38;34.30;;;21.05;;
20441;SDS011;10380;52.102;20.614;2022-09-09T16:39:13;31.60;;;21.10;;
20441;SDS011;10380;52.102;20.614;2022-09-09T16:41:43;33.25;;;21.30;;
20441;SDS011;10380;52.102;20.614;2022-09-09T16:44:12;33.00;;;20.05;;
20441;SDS011;10380;52.102;20.614;2022-09-09T16:46:42;33.22;;;21.98;;
20441;SDS011;10380;52.102;20.614;2022-09-09T16:49:12;30.55;;;22.00;;
20441;SDS011;10380;52.102;20.614;2022-09-09T16:51:42;33.25;;;21.88;;
20441;SDS011;10380;52.102;20.614;2022-09-09T16:54:11;36.08;;;22.90;;